Terminal Aerodrome Forecast
Issued by NWS Jackson, MS

Home | Current Version | Previous Version | Text Only | Print | Product List | Glossary On
Versions: 1 2 3 4 5 6 7 8 9 10 11 12 13 14 15 16 17 18 19
966
FTUS44 KJAN 232320
TAFGLH
TAF
KGLH 232320Z 2400/2424 15008KT P6SM VCSH SCT008 BKN015
     FM241100 18009KT 5SM BR BKN008
     FM241300 18011G24KT P6SM BKN015
     FM241500 18013G27KT P6SM VCTS BKN025CB
     FM241800 19018G34KT P6SM VCTS BKN035CB=

USA.gov is the U.S. government's official web portal to all federal, state and local government web resources and services.